Terminal Aerodrome Forecast
Issued by NWS

Home | Current Version | Previous Version | Text Only | Print | Product List | Glossary On
Versions: 1 2 3 4 5 6 7 8 9 10 11 12 13 14 15
746
FTPA31 PHFO 262338
TAFHMK
TAF
PHMK 262338Z 2700/2724 05016G28KT P6SM FEW030 SCT045
     FM270600 05008G15KT P6SM SCT030 SCT045
     FM270800 05008KT P6SM SCT045
     FM272000 06012G20KT P6SM SCT030 SCT045=

USA.gov is the U.S. government's official web portal to all federal, state and local government web resources and services.